createdAt,value
2022-11-03T00:00:08.773Z,45.14
2022-11-03T00:03:01.508Z,45.24
2022-11-03T00:05:51.558Z,45.29
2022-11-03T00:08:23.670Z,45.33
2022-11-03T00:10:55.770Z,45.39
2022-11-03T00:13:27.883Z,45.45
2022-11-03T00:16:01.763Z,45.55
2022-11-03T00:18:34.022Z,45.65
2022-11-03T00:21:07.945Z,45.68
2022-11-03T00:23:42.124Z,45.78
2022-11-03T00:26:15.786Z,45.82
2022-11-03T00:28:50.227Z,45.79
2022-11-03T00:31:25.994Z,45.89
2022-11-03T00:33:59.243Z,45.93
2022-11-03T00:36:32.848Z,45.96
2022-11-03T00:39:05.873Z,46.01
2022-11-03T00:45:02.748Z,46.12
2022-11-03T00:47:34.921Z,46.19
2022-11-03T00:50:08.222Z,46.22
2022-11-03T00:52:40.679Z,46.29
2022-11-03T00:55:12.973Z,46.30
2022-11-03T00:57:45.408Z,46.32
2022-11-03T01:00:34.659Z,46.33
2022-11-03T01:03:08.125Z,46.41
2022-11-03T01:06:05.956Z,46.36
2022-11-03T01:08:38.994Z,46.34
2022-11-03T01:11:43.164Z,46.47
2022-11-03T01:14:17.321Z,46.47
2022-11-03T01:16:50.599Z,46.48
2022-11-03T01:19:24.126Z,46.44
2022-11-03T01:21:57.269Z,46.58
2022-11-03T01:24:31.992Z,46.67
2022-11-03T01:27:04.875Z,46.70
2022-11-03T01:33:56.765Z,46.86
2022-11-03T01:36:29.860Z,46.87
2022-11-03T01:39:02.370Z,46.99
2022-11-03T01:41:32.861Z,47.04
2022-11-03T01:44:29.611Z,47.16
2022-11-03T01:47:08.480Z,47.11
2022-11-03T01:49:45.297Z,47.20
2022-11-03T01:52:19.945Z,47.20
2022-11-03T01:54:57.586Z,47.27
2022-11-03T01:57:33.258Z,47.40
2022-11-03T02:00:07.274Z,47.38
2022-11-03T02:02:41.044Z,47.37
2022-11-03T02:10:54.518Z,47.62
2022-11-03T02:13:28.723Z,47.70
2022-11-03T02:16:02.278Z,47.69
2022-11-03T02:18:37.846Z,47.79
2022-11-03T02:21:16.652Z,47.83
2022-11-03T02:23:52.555Z,47.87
2022-11-03T02:26:24.813Z,48.02
2022-11-03T02:28:57.311Z,47.99
2022-11-03T02:31:33.527Z,48.05
2022-11-03T02:34:09.599Z,48.09
2022-11-03T02:36:46.534Z,48.26
2022-11-03T02:39:21.071Z,48.29
2022-11-03T02:41:54.267Z,48.25
2022-11-03T02:44:27.151Z,48.28
2022-11-03T02:47:01.895Z,48.37
2022-11-03T02:49:34.368Z,48.38
2022-11-03T02:52:05.926Z,48.39
2022-11-03T02:54:41.462Z,48.53
2022-11-03T02:57:16.940Z,48.58
2022-11-03T02:59:52.035Z,48.65
2022-11-03T03:02:27.737Z,48.72
2022-11-03T03:05:01.581Z,48.74
2022-11-03T03:07:35.785Z,48.76
2022-11-03T03:10:10.254Z,48.82
2022-11-03T03:12:44.706Z,48.91
2022-11-03T03:15:17.098Z,48.90
2022-11-03T03:17:56.263Z,48.97
2022-11-03T03:20:33.043Z,49.00
2022-11-03T03:23:11.714Z,48.99
2022-11-03T03:25:47.083Z,49.13
2022-11-03T03:28:22.799Z,49.14
2022-11-03T03:30:56.236Z,49.12
2022-11-03T03:33:29.595Z,49.19
2022-11-03T03:36:02.754Z,49.17
2022-11-03T03:38:37.076Z,49.25
2022-11-03T03:41:11.409Z,49.33
2022-11-03T03:43:44.885Z,49.36
2022-11-03T03:46:17.579Z,49.38
2022-11-03T03:48:49.866Z,49.45
2022-11-03T03:51:24.296Z,49.37
2022-11-03T03:53:56.698Z,49.52
2022-11-03T03:56:31.592Z,49.54
2022-11-03T03:59:04.631Z,49.61
2022-11-03T04:01:36.928Z,49.59
2022-11-03T04:04:09.923Z,49.69
2022-11-03T04:06:42.005Z,49.82
2022-11-03T04:09:14.180Z,49.71
2022-11-03T04:12:03.842Z,49.85
2022-11-03T04:14:53.446Z,49.88
2022-11-03T04:17:43.051Z,50.03
2022-11-03T04:20:33.975Z,49.94
2022-11-03T04:23:06.073Z,50.06
2022-11-03T04:25:38.791Z,50.18
2022-11-03T04:28:15.889Z,50.10
2022-11-03T04:30:48.197Z,50.18
2022-11-03T04:33:21.957Z,50.17
2022-11-03T04:35:55.926Z,50.11
2022-11-03T04:38:29.348Z,50.19
2022-11-03T04:41:03.593Z,50.17
2022-11-03T04:43:36.878Z,50.31
2022-11-03T04:46:12.638Z,50.26
2022-11-03T04:48:44.843Z,50.31
2022-11-03T04:51:18.928Z,50.32
2022-11-03T04:53:54.269Z,50.39
2022-11-03T04:56:27.764Z,50.39
2022-11-03T04:59:00.889Z,50.48
2022-11-03T05:01:33.329Z,50.49
2022-11-03T05:04:12.496Z,50.48
2022-11-03T05:06:47.625Z,50.61
2022-11-03T05:09:24.811Z,50.62
2022-11-03T05:11:57.028Z,50.56
2022-11-03T05:14:31.138Z,50.66
2022-11-03T05:17:07.261Z,50.54
2022-11-03T05:19:40.396Z,50.60
2022-11-03T05:22:18.087Z,50.62
2022-11-03T05:24:50.405Z,50.73
2022-11-03T05:27:24.065Z,50.67
2022-11-03T05:30:00.784Z,50.76
2022-11-03T05:32:35.867Z,50.65
2022-11-03T05:35:17.576Z,50.82
2022-11-03T05:37:49.750Z,50.71
2022-11-03T05:40:26.037Z,50.72
2022-11-03T05:43:00.291Z,50.83
2022-11-03T05:45:39.266Z,50.82
2022-11-03T05:48:18.499Z,50.83
2022-11-03T05:50:50.689Z,50.97
2022-11-03T05:53:31.342Z,50.87
2022-11-03T05:56:06.029Z,50.91
2022-11-03T05:58:40.308Z,50.96
2022-11-03T06:01:17.826Z,50.95
2022-11-03T06:03:50.477Z,51.12
2022-11-03T06:06:21.937Z,51.13
2022-11-03T06:08:54.549Z,51.26
2022-11-03T06:11:32.522Z,51.22
2022-11-03T06:14:07.468Z,51.21
2022-11-03T06:16:41.941Z,51.20
2022-11-03T06:19:29.710Z,51.26
2022-11-03T06:22:03.680Z,51.19
2022-11-03T06:24:36.896Z,51.23
2022-11-03T06:27:10.977Z,51.21
2022-11-03T06:29:43.407Z,51.08
2022-11-03T06:32:16.003Z,51.09
2022-11-03T06:34:46.922Z,51.03
2022-11-03T06:37:27.882Z,51.14
2022-11-03T06:40:01.933Z,51.21
2022-11-03T06:42:35.023Z,51.18
2022-11-03T06:45:16.199Z,51.20
2022-11-03T06:47:48.633Z,51.13
2022-11-03T06:50:27.265Z,51.14
2022-11-03T06:53:00.039Z,51.11
2022-11-03T06:55:33.471Z,51.18
2022-11-03T06:58:13.751Z,51.21
2022-11-03T07:00:51.004Z,51.09
2022-11-03T07:03:26.898Z,50.99
2022-11-03T07:06:03.470Z,50.91
2022-11-03T07:08:39.161Z,51.02
2022-11-03T07:11:16.723Z,51.02
2022-11-03T07:13:50.119Z,51.08
2022-11-03T07:16:29.008Z,51.07
2022-11-03T07:19:04.098Z,51.09
2022-11-03T07:21:40.860Z,51.11
2022-11-03T07:24:20.054Z,51.16
2022-11-03T07:26:58.261Z,51.10
2022-11-03T07:29:31.994Z,51.21
2022-11-03T07:32:04.241Z,51.26
2022-11-03T07:34:36.352Z,51.16
2022-11-03T07:37:09.460Z,51.12
2022-11-03T07:39:41.654Z,51.13
2022-11-03T07:42:19.052Z,51.16
2022-11-03T07:44:51.759Z,51.13
2022-11-03T07:47:26.898Z,51.04
2022-11-03T07:49:59.465Z,50.93
2022-11-03T07:52:29.931Z,50.87
2022-11-03T07:55:02.477Z,50.87
2022-11-03T07:57:32.981Z,50.97
2022-11-03T08:00:10.632Z,50.90
2022-11-03T08:02:48.158Z,50.98
2022-11-03T08:05:21.090Z,51.03
2022-11-03T08:07:53.450Z,50.87
2022-11-03T08:10:25.707Z,50.91
2022-11-03T08:12:58.944Z,50.82
2022-11-03T08:15:31.151Z,50.87
2022-11-03T08:18:03.420Z,50.75
2022-11-03T08:20:35.807Z,50.74
2022-11-03T08:23:26.126Z,50.78
2022-11-03T08:26:00.201Z,50.73
2022-11-03T08:28:32.669Z,50.69
2022-11-03T08:31:11.128Z,50.71
2022-11-03T08:33:46.634Z,50.59
2022-11-03T08:36:20.087Z,50.60
2022-11-03T08:38:52.587Z,50.55
2022-11-03T08:41:24.800Z,50.58
2022-11-03T08:43:56.941Z,50.49
2022-11-03T08:46:29.094Z,50.31
2022-11-03T08:49:01.469Z,50.40
2022-11-03T08:51:34.056Z,50.30
2022-11-03T08:54:06.489Z,50.30
2022-11-03T08:56:38.826Z,50.27
2022-11-03T08:59:11.069Z,50.13
2022-11-03T09:01:45.014Z,50.18
2022-11-03T09:04:19.287Z,50.05
2022-11-03T09:06:52.530Z,50.04
2022-11-03T09:12:19.440Z,49.97
2022-11-03T09:14:52.812Z,49.94
2022-11-03T09:17:26.445Z,49.79
2022-11-03T09:19:59.328Z,49.84
2022-11-03T09:22:32.101Z,49.70
2022-11-03T09:25:05.852Z,49.81
2022-11-03T09:27:38.323Z,49.74
2022-11-03T09:30:13.625Z,49.69
2022-11-03T09:32:47.977Z,49.50
2022-11-03T09:35:21.842Z,49.55
2022-11-03T09:37:55.468Z,49.56
2022-11-03T09:40:28.830Z,49.46
2022-11-03T09:43:01.236Z,49.12
2022-11-03T09:45:36.848Z,48.66
2022-11-03T09:48:13.163Z,48.77
2022-11-03T09:50:45.838Z,48.50
2022-11-03T09:53:19.463Z,48.28
2022-11-03T09:55:52.864Z,48.17
2022-11-03T09:58:26.245Z,47.96
2022-11-03T10:00:59.756Z,48.00
2022-11-03T10:09:56.556Z,47.53
2022-11-03T10:12:29.354Z,47.46
2022-11-03T10:15:02.458Z,47.39
2022-11-03T10:17:34.772Z,47.38
2022-11-03T10:20:11.347Z,47.15
2022-11-03T10:22:44.102Z,47.27
2022-11-03T10:25:38.831Z,46.99
2022-11-03T10:28:20.156Z,46.62
2022-11-03T10:31:11.951Z,46.61
2022-11-03T10:33:43.747Z,46.35
2022-11-03T10:36:27.928Z,46.24
2022-11-03T10:39:01.880Z,45.98
2022-11-03T10:41:34.747Z,46.04
2022-11-03T10:44:22.964Z,45.85
2022-11-03T10:47:02.894Z,45.73
2022-11-03T10:49:39.213Z,45.51
2022-11-03T10:52:19.919Z,45.55
2022-11-03T10:54:53.738Z,45.36
2022-11-03T10:57:26.407Z,45.17
2022-11-03T10:59:59.017Z,45.11
2022-11-03T11:02:33.206Z,45.06
2022-11-03T11:05:11.275Z,45.08
2022-11-03T11:07:44.915Z,44.77
2022-11-03T11:10:19.705Z,44.56
2022-11-03T11:13:27.061Z,44.43
2022-11-03T11:16:00.769Z,44.43
2022-11-03T11:19:10.143Z,44.22
2022-11-03T11:22:05.534Z,44.05
2022-11-03T11:25:04.695Z,43.90
2022-11-03T11:28:17.979Z,43.90
2022-11-03T11:31:20.077Z,43.71
2022-11-03T11:33:52.634Z,43.72
2022-11-03T11:36:26.224Z,43.46
2022-11-03T11:39:01.763Z,43.28
2022-11-03T11:42:10.349Z,43.05
2022-11-03T11:44:58.107Z,42.78
2022-11-03T11:47:35.874Z,42.67
2022-11-03T11:50:33.475Z,42.44
2022-11-03T11:53:26.265Z,42.32
2022-11-03T11:56:03.643Z,42.37
2022-11-03T11:58:42.646Z,41.86
2022-11-03T12:01:32.735Z,41.53
2022-11-03T12:04:09.618Z,41.68
2022-11-03T12:09:21.991Z,41.34
2022-11-03T12:11:56.505Z,41.07
2022-11-03T12:14:36.070Z,41.10
2022-11-03T12:17:35.649Z,41.05
2022-11-03T12:20:45.078Z,40.61
2022-11-03T12:23:37.153Z,40.64
2022-11-03T12:26:13.876Z,40.65
2022-11-03T12:28:46.391Z,40.36
2022-11-03T12:31:18.671Z,40.27
2022-11-03T12:33:49.270Z,39.90
2022-11-03T12:36:21.423Z,39.88
2022-11-03T12:38:53.278Z,39.93
2022-11-03T12:41:25.632Z,39.52
2022-11-03T12:43:56.445Z,39.50
2022-11-03T12:46:28.835Z,39.25
2022-11-03T12:48:59.376Z,39.33
2022-11-03T12:51:31.597Z,39.31
2022-11-03T12:54:02.098Z,39.09
2022-11-03T12:56:34.255Z,39.00
2022-11-03T12:59:06.852Z,38.74
2022-11-03T13:01:37.717Z,38.70
2022-11-03T13:04:10.373Z,38.69
2022-11-03T13:06:42.508Z,38.62
2022-11-03T13:09:13.149Z,38.65
2022-11-03T13:12:02.743Z,38.75
2022-11-03T13:14:34.954Z,38.62
2022-11-03T13:17:07.124Z,38.51
2022-11-03T13:19:39.226Z,38.40
2022-11-03T13:22:11.348Z,38.36
2022-11-03T13:24:43.536Z,38.16
2022-11-03T13:27:15.793Z,38.05
2022-11-03T13:29:48.111Z,38.08
2022-11-03T13:32:18.697Z,38.04
2022-11-03T13:34:53.487Z,37.94
2022-11-03T13:37:25.684Z,37.93
2022-11-03T13:39:57.826Z,37.88
2022-11-03T13:42:28.362Z,37.91
2022-11-03T13:45:00.860Z,38.00
2022-11-03T13:47:49.642Z,37.74
2022-11-03T13:50:25.521Z,37.72
2022-11-03T13:55:50.441Z,37.77
2022-11-03T14:01:15.014Z,37.89
2022-11-03T14:06:38.395Z,37.81
2022-11-03T14:09:13.364Z,37.69
2022-11-03T14:12:03.005Z,37.82
2022-11-03T14:14:35.178Z,37.85
2022-11-03T14:17:07.460Z,37.77
2022-11-03T14:19:43.764Z,37.87
2022-11-03T14:22:21.091Z,37.92
2022-11-03T14:24:54.066Z,37.84
2022-11-03T14:27:26.530Z,37.74
2022-11-03T14:29:59.896Z,37.87
2022-11-03T14:32:32.008Z,37.86
2022-11-03T14:35:04.455Z,37.98
2022-11-03T14:37:36.742Z,38.08
2022-11-03T14:40:31.364Z,38.09
2022-11-03T14:43:04.039Z,38.17
2022-11-03T14:45:39.764Z,38.28
2022-11-03T14:48:14.679Z,38.16
2022-11-03T14:50:48.292Z,38.34
2022-11-03T14:53:20.475Z,38.17
2022-11-03T14:55:52.746Z,38.19
2022-11-03T14:58:25.026Z,38.29
2022-11-03T15:00:57.345Z,38.30
2022-11-03T15:03:27.857Z,38.39
2022-11-03T15:06:00.086Z,38.40
2022-11-03T15:08:32.787Z,38.47
2022-11-03T15:11:08.128Z,38.65
2022-11-03T15:13:45.828Z,38.47
2022-11-03T15:16:20.721Z,38.62
2022-11-03T15:18:53.121Z,38.73
2022-11-03T15:21:25.288Z,38.90
2022-11-03T15:26:49.558Z,38.77
2022-11-03T15:29:24.175Z,38.70
2022-11-03T15:31:56.536Z,38.86
2022-11-03T15:34:28.796Z,38.74
2022-11-03T15:37:01.132Z,38.84
2022-11-03T15:39:36.363Z,38.82
2022-11-03T15:42:08.871Z,38.94
2022-11-03T15:44:41.215Z,38.85
2022-11-03T15:47:13.576Z,38.74
2022-11-03T15:49:44.235Z,38.89
2022-11-03T15:52:16.673Z,38.96
2022-11-03T15:54:48.743Z,39.06
2022-11-03T15:57:21.012Z,39.08
2022-11-03T15:59:55.347Z,38.97
2022-11-03T16:02:45.914Z,39.07
2022-11-03T16:05:23.800Z,39.08
2022-11-03T16:08:00.520Z,39.23
2022-11-03T16:10:32.871Z,39.18
2022-11-03T16:13:05.221Z,39.26
2022-11-03T16:15:37.478Z,39.24
2022-11-03T16:18:10.061Z,39.40
2022-11-03T16:20:45.110Z,39.33
2022-11-03T16:23:17.430Z,39.46
2022-11-03T16:25:49.599Z,39.44
2022-11-03T16:28:21.752Z,39.49
2022-11-03T16:30:54.709Z,39.51
2022-11-03T16:33:27.066Z,39.66
2022-11-03T16:35:59.744Z,39.74
2022-11-03T16:38:32.077Z,39.84
2022-11-03T16:41:05.361Z,39.87
2022-11-03T16:43:37.597Z,39.84
2022-11-03T16:46:10.504Z,39.99
2022-11-03T16:48:42.676Z,40.08
2022-11-03T16:51:14.944Z,40.10
2022-11-03T16:53:47.237Z,40.09
2022-11-03T16:56:19.517Z,40.23
2022-11-03T16:58:51.708Z,40.19
2022-11-03T17:01:23.979Z,40.40
2022-11-03T17:03:57.077Z,40.40
2022-11-03T17:10:42.051Z,40.56
2022-11-03T17:13:17.549Z,40.60
2022-11-03T17:15:50.330Z,40.66
2022-11-03T17:18:22.647Z,40.65
2022-11-03T17:20:55.016Z,40.73
2022-11-03T17:23:27.498Z,40.80
2022-11-03T17:29:23.224Z,40.87
2022-11-03T17:31:51.986Z,41.02
2022-11-03T17:34:23.730Z,40.97
2022-11-03T17:36:53.379Z,40.98
2022-11-03T17:39:28.962Z,41.03
2022-11-03T17:42:04.082Z,41.07
2022-11-03T17:44:32.947Z,41.18
2022-11-03T17:47:01.826Z,41.28
2022-11-03T17:49:30.636Z,41.26
2022-11-03T17:51:59.442Z,41.41
2022-11-03T17:54:30.805Z,41.52
2022-11-03T17:57:00.850Z,41.62
2022-11-03T17:59:29.796Z,41.64
2022-11-03T18:01:58.948Z,41.75
2022-11-03T18:04:27.901Z,41.77
2022-11-03T18:06:57.166Z,41.82
2022-11-03T18:09:25.964Z,41.86
2022-11-03T18:12:13.065Z,41.87
2022-11-03T18:14:41.894Z,41.94
2022-11-03T18:17:10.899Z,42.10
2022-11-03T18:19:40.043Z,42.15
2022-11-03T18:22:10.303Z,42.20
2022-11-03T18:24:39.148Z,42.26
2022-11-03T18:27:11.685Z,42.31
2022-11-03T18:29:39.457Z,42.33
2022-11-03T18:32:10.578Z,42.41
2022-11-03T18:34:41.321Z,42.47
2022-11-03T18:37:10.369Z,42.63
2022-11-03T18:39:39.631Z,42.79
2022-11-03T18:42:13.692Z,42.72
2022-11-03T18:44:43.884Z,42.88
2022-11-03T18:47:12.639Z,42.81
2022-11-03T18:49:41.606Z,42.94
2022-11-03T18:52:14.072Z,43.01
2022-11-03T18:54:44.016Z,43.07
2022-11-03T18:57:13.393Z,43.22
2022-11-03T18:59:44.578Z,43.21
2022-11-03T19:02:17.646Z,43.18
2022-11-03T19:04:46.994Z,43.28
2022-11-03T19:07:19.341Z,43.33
2022-11-03T19:09:48.193Z,43.42
2022-11-03T19:12:17.162Z,43.48
2022-11-03T19:14:47.417Z,43.62
2022-11-03T19:17:25.423Z,43.55
2022-11-03T19:19:54.604Z,43.78
2022-11-03T19:22:24.323Z,43.72
2022-11-03T19:24:53.219Z,43.81
2022-11-03T19:27:25.728Z,43.83
2022-11-03T19:29:55.562Z,44.01
2022-11-03T19:32:26.258Z,43.95
2022-11-03T19:34:57.037Z,44.12
2022-11-03T19:37:28.725Z,44.12
2022-11-03T19:40:00.713Z,44.11
2022-11-03T19:42:30.689Z,44.16
2022-11-03T19:45:06.662Z,44.27
2022-11-03T19:47:38.361Z,44.33
2022-11-03T19:50:17.759Z,44.52
2022-11-03T19:52:46.680Z,44.48
2022-11-03T19:55:16.099Z,44.64
2022-11-03T19:57:45.135Z,44.63
2022-11-03T20:00:18.158Z,44.61
2022-11-03T20:02:47.369Z,44.64
2022-11-03T20:05:16.461Z,44.64
2022-11-03T20:07:45.397Z,44.82
2022-11-03T20:10:18.987Z,44.82
2022-11-03T20:12:48.197Z,44.90
2022-11-03T20:15:19.079Z,45.00
2022-11-03T20:17:49.202Z,45.07
2022-11-03T20:20:19.765Z,45.11
2022-11-03T20:22:50.376Z,45.14
2022-11-03T20:25:23.405Z,45.18
2022-11-03T20:27:52.766Z,45.30
2022-11-03T20:30:22.778Z,45.39
2022-11-03T20:32:52.286Z,45.47
2022-11-03T20:35:24.207Z,45.49
2022-11-03T20:37:59.098Z,45.66
2022-11-03T20:40:30.358Z,45.62
2022-11-03T20:43:01.062Z,45.70
2022-11-03T20:45:30.079Z,45.69
2022-11-03T20:47:59.121Z,45.92
2022-11-03T20:50:31.473Z,45.83
2022-11-03T20:53:00.434Z,46.01
2022-11-03T20:55:29.989Z,45.90
2022-11-03T20:57:59.396Z,46.02
2022-11-03T21:00:28.598Z,46.00
2022-11-03T21:02:57.594Z,46.10
2022-11-03T21:05:27.979Z,46.24
2022-11-03T21:07:56.974Z,46.25
2022-11-03T21:10:25.968Z,46.31
2022-11-03T21:12:54.962Z,46.33
2022-11-03T21:15:57.723Z,46.40
2022-11-03T21:18:49.868Z,46.44
2022-11-03T21:21:21.385Z,46.47
2022-11-03T21:23:50.571Z,46.50
2022-11-03T21:26:19.511Z,46.58
2022-11-03T21:28:48.427Z,46.64
2022-11-03T21:31:23.193Z,46.63
2022-11-03T21:33:52.155Z,46.78
2022-11-03T21:36:21.194Z,46.77
2022-11-03T21:38:50.102Z,46.86
2022-11-03T21:41:37.390Z,46.89
2022-11-03T21:44:16.570Z,46.80
2022-11-03T21:46:46.644Z,46.95
2022-11-03T21:49:33.750Z,47.15
2022-11-03T21:52:02.694Z,47.08
2022-11-03T21:54:31.700Z,47.16
2022-11-03T21:57:00.624Z,47.24
2022-11-03T21:59:29.611Z,47.39
2022-11-03T22:01:58.773Z,47.41
2022-11-03T22:04:28.464Z,47.35
2022-11-03T22:06:58.927Z,47.43
2022-11-03T22:09:28.328Z,47.39
2022-11-03T22:11:57.227Z,47.45
2022-11-03T22:14:28.492Z,47.47
2022-11-03T22:16:57.779Z,47.61
2022-11-03T22:19:45.034Z,47.57
2022-11-03T22:22:33.483Z,47.71
2022-11-03T22:25:20.963Z,47.75
2022-11-03T22:27:49.883Z,47.79
2022-11-03T22:30:37.353Z,47.78
2022-11-03T22:33:06.301Z,47.81
2022-11-03T22:35:53.557Z,47.90
2022-11-03T22:38:42.456Z,47.93
2022-11-03T22:41:29.911Z,48.05
2022-11-03T22:44:22.717Z,48.09
2022-11-03T22:46:51.665Z,48.14
2022-11-03T22:49:20.586Z,48.14
2022-11-03T22:51:49.622Z,48.24
2022-11-03T22:54:18.724Z,48.17
2022-11-03T22:56:47.665Z,48.24
2022-11-03T22:59:16.673Z,48.27
2022-11-03T23:01:45.692Z,48.36
2022-11-03T23:04:14.805Z,48.32
2022-11-03T23:06:43.723Z,48.40
2022-11-03T23:09:14.709Z,48.46
2022-11-03T23:11:43.685Z,48.60
2022-11-03T23:14:12.631Z,48.57
2022-11-03T23:16:43.526Z,48.58
2022-11-03T23:19:32.835Z,48.59
2022-11-03T23:22:01.972Z,48.57
2022-11-03T23:24:49.108Z,48.67
2022-11-03T23:27:18.054Z,48.71
2022-11-03T23:29:46.977Z,48.62
2022-11-03T23:32:15.968Z,48.64
2022-11-03T23:34:44.876Z,48.71
2022-11-03T23:37:13.951Z,48.64
2022-11-03T23:39:42.854Z,48.74
2022-11-03T23:42:11.809Z,48.67
2022-11-03T23:44:59.300Z,48.69
2022-11-03T23:47:46.575Z,48.70
2022-11-03T23:50:15.861Z,48.92
2022-11-03T23:52:44.746Z,48.93
2022-11-03T23:55:13.653Z,49.09
2022-11-03T23:58:00.799Z,49.23
